Ana Sayfa
METAR-TAF:

METAR-TAF

Havaalanları :

Funchal, Madeira, Portekiz

Enlem: 32-41-52N, Boylam: 016-46-28W, yükseklik: 59 m

Güncel hava durumu gözlemi

Rapor saat 00:00 UTC de 39 dakika önce yapıldı.
Rüzgar kuzeydan 13 kt, kuzeybatı ve kuzey/kuzeydoğu arasında değişken
Sıcaklık 19°C
Nem 78%
Basınç 1020 hPa
Görüş mesafesi 10 km veya daha fazla
1500 ft yükseklikte parçalı bulutlu

METAR: LPMA 210000Z 35013KT 320V030 9999 SCT015 19/15 Q1020

Saat: 01:39 (00:39 UTC)

Tahmin

Rapor saat 23:00 UTC de 1 saat ve 39 dakika önce yapıldı.
Ayın 21'si saat 00 UTC'den ayın 21'si saat 24 UTC'ye kadar geçerli Tahmin
Rüzgar kuzeydan 12 kt
Görüş mesafesi 10 km veya daha fazla
1500 ft yükseklikte parçalı bulutlu
3000 ft yükseklikte parçalı çok bulutlu
Geçici
ayın 21'si saat 00 UTC'den ayın 21'si saat 06 UTC'ye kadar
Rüzgar değişken yönden 5 kt
1500 ft yükseklikte parçalı çok bulutlu

TAF: LPMA 202300Z 2100/2124 36012KT 9999 SCT015 BKN030 TEMPO 2100/2106 VRB05KT BKN015

4.000'den fazla havaalanı için hava durumu gözlemleri ve tahminleri (METAR ve TAF raporları).

Kullanılabilir istasyonlar harita üzerinde sarı ve kırmızı noktalarla gösterilir.

İstasyonun adını görmek için fareyi noktanın üzerinde gezdirin.

Sonrasında hava gözlem ve tahminlerini görmek için tıklayın.

Haritayı değiştirmek için: yaklaştırmak için siyah artı işaretli yeşil düğmeye ve uzaklaştırmak için de eksi işaretli düğmeye hızla tıklayın; bitişik haritalar için yeşil okları kullanın.


METAR-TAF: